Авиационная погода в Богашево

Регион: 
Погода METAR: 
UNTT 222100Z 19001MPS 2900 -SN BR BKN009 M20/M23 Q1031 R21/490145 NOSIG RMK QFE758
Время наблюдения
2022-01-22T21:00:00Z
Температура C
-20.0
Точка росы
-23.0
Направление ветра
190
Скорость ветра (узлы)
2
Метео видимость
1.8
Облачность
BKN
Нижняя граница облачности (футы)
900
Явления погоды
-SN BR
Условия полета
IFR
Аэропорт подробнее: 
BKN – значительная (рассеянная, разорванная) облачность;
-SN – слабый снег; BR – дымка (видимость от 1 до 9 км);